Aviation Digital Data Service (ADDS)

Output produced by METARs form (0519 UTC 25 June 2017)
found at http://aviationweather.gov/adds/metars/
 
KHKY 242328Z 2500/2524 VRB03KT P6SM SCT050 
     FM250300 VRB04KT P6SM FEW050 SCT200 
     FM251200 33007KT P6SM SCT250 
     FM251800 31006KT P6SM BKN250